createdAt,value
2023-04-01T00:02:28.579Z,12.00
2023-04-01T00:07:31.009Z,11.90
2023-04-01T00:12:33.047Z,11.80
2023-04-01T00:17:35.860Z,11.80
2023-04-01T00:22:37.745Z,11.70
2023-04-01T00:27:39.756Z,11.70
2023-04-01T00:32:41.795Z,11.60
2023-04-01T00:37:43.717Z,11.50
2023-04-01T00:42:45.575Z,11.50
2023-04-01T00:47:47.570Z,11.40
2023-04-01T00:52:49.468Z,11.20
2023-04-01T00:57:54.304Z,11.20
2023-04-01T01:02:56.355Z,11.10
2023-04-01T01:08:17.806Z,11.20
2023-04-01T01:13:51.868Z,11.20
2023-04-01T01:19:17.910Z,11.10
2023-04-01T01:24:30.864Z,11.10
2023-04-01T01:29:35.657Z,11.10
2023-04-01T01:35:16.057Z,11.00
2023-04-01T01:40:18.849Z,11.10
2023-04-01T01:45:24.317Z,11.20
2023-04-01T01:50:27.896Z,11.20
2023-04-01T01:55:30.137Z,11.10
2023-04-01T02:00:34.732Z,11.20
2023-04-01T02:05:37.114Z,11.20
2023-04-01T02:10:51.112Z,11.30
2023-04-01T02:16:03.030Z,11.30
2023-04-01T02:21:06.696Z,11.20
2023-04-01T02:26:11.127Z,11.20
2023-04-01T02:31:15.033Z,11.20
2023-04-01T02:36:18.433Z,11.10
2023-04-01T02:41:20.362Z,11.10
2023-04-01T02:46:22.452Z,11.10
2023-04-01T02:51:24.324Z,11.10
2023-04-01T02:56:27.057Z,11.10
2023-04-01T03:01:28.931Z,11.10
2023-04-01T03:06:30.841Z,11.10
2023-04-01T03:11:32.635Z,11.10
2023-04-01T03:16:34.466Z,11.10
2023-04-01T03:21:36.810Z,11.10
2023-04-01T03:26:38.741Z,11.10
2023-04-01T03:31:40.646Z,11.10
2023-04-01T03:36:42.555Z,11.10
2023-04-01T03:41:44.419Z,11.10
2023-04-01T03:46:46.200Z,11.10
2023-04-01T03:51:47.974Z,11.10
2023-04-01T03:56:50.791Z,11.10
2023-04-01T04:01:52.766Z,11.10
2023-04-01T04:06:55.713Z,11.20
2023-04-01T04:11:58.818Z,11.20
2023-04-01T04:17:00.732Z,11.20
2023-04-01T04:22:02.756Z,11.20
2023-04-01T04:27:05.247Z,11.30
2023-04-01T04:32:07.521Z,11.30
2023-04-01T04:37:09.633Z,11.30
2023-04-01T04:42:12.365Z,11.30
2023-04-01T04:47:14.477Z,11.20
2023-04-01T04:52:16.731Z,11.20
2023-04-01T04:57:18.717Z,11.20
2023-04-01T05:02:27.983Z,11.10
2023-04-01T05:07:30.097Z,11.00
2023-04-01T05:12:33.730Z,11.00
2023-04-01T05:17:37.551Z,11.00
2023-04-01T05:22:40.311Z,10.90
2023-04-01T05:27:42.189Z,10.90
2023-04-01T05:32:44.848Z,10.90
2023-04-01T05:38:00.184Z,10.80
2023-04-01T05:43:02.125Z,10.90
2023-04-01T05:48:04.203Z,10.80
2023-04-01T05:53:11.913Z,10.90
2023-04-01T05:58:17.310Z,10.80
2023-04-01T06:03:22.067Z,10.90
2023-04-01T06:08:25.721Z,10.80
2023-04-01T06:14:06.217Z,10.80
2023-04-01T06:19:28.838Z,10.80
2023-04-01T06:24:52.987Z,10.90
2023-04-01T06:30:13.731Z,10.90
2023-04-01T06:35:16.845Z,10.90
2023-04-01T06:40:24.295Z,11.00
2023-04-01T06:45:52.784Z,11.10
2023-04-01T06:51:25.072Z,11.20
2023-04-01T06:56:49.535Z,11.30
2023-04-01T07:02:06.830Z,11.30
2023-04-01T07:07:16.569Z,11.30
2023-04-01T07:12:36.863Z,11.40
2023-04-01T07:18:02.952Z,11.50
2023-04-01T07:23:23.905Z,11.60
2023-04-01T07:28:54.183Z,11.70
2023-04-01T07:34:56.134Z,11.80
2023-04-01T07:40:17.004Z,11.90
2023-04-01T07:45:46.637Z,11.90
2023-04-01T07:51:08.799Z,12.00
2023-04-01T07:56:16.680Z,12.00
2023-04-01T08:01:36.415Z,12.10
2023-04-01T08:07:20.680Z,12.10
2023-04-01T08:13:19.989Z,12.20
2023-04-01T08:19:14.900Z,12.30
2023-04-01T08:24:46.490Z,12.30
2023-04-01T08:30:17.634Z,12.30
2023-04-01T08:35:33.280Z,12.30
2023-04-01T08:40:50.914Z,12.30
2023-04-01T08:46:11.657Z,12.30
2023-04-01T08:51:35.636Z,12.30
2023-04-01T08:56:51.304Z,12.20
2023-04-01T09:02:16.892Z,12.10
2023-04-01T09:07:30.862Z,12.10
2023-04-01T09:13:24.034Z,12.10
2023-04-01T09:18:26.082Z,12.10
2023-04-01T09:23:47.112Z,12.00
2023-04-01T09:29:17.552Z,12.00
2023-04-01T09:34:44.267Z,11.90
2023-04-01T09:39:55.640Z,11.90
2023-04-01T09:45:35.274Z,11.90
2023-04-01T09:50:37.859Z,11.90
2023-04-01T09:56:04.476Z,11.90
2023-04-01T10:01:12.280Z,12.00
2023-04-01T10:06:42.064Z,12.10
2023-04-01T10:12:17.444Z,12.20
2023-04-01T10:17:28.221Z,12.20
2023-04-01T10:22:49.176Z,12.10
2023-04-01T10:28:44.326Z,12.20
2023-04-01T10:34:27.141Z,12.30
2023-04-01T10:39:54.574Z,12.40
2023-04-01T10:45:36.960Z,12.50
2023-04-01T10:50:51.168Z,12.60
2023-04-01T10:56:16.582Z,12.60
2023-04-01T11:02:16.646Z,12.60
2023-04-01T11:07:50.475Z,12.80
2023-04-01T11:13:17.407Z,12.80
2023-04-01T11:18:41.453Z,12.80
2023-04-01T11:24:12.816Z,13.00
2023-04-01T11:29:56.709Z,13.20
2023-04-01T11:35:32.850Z,13.20
2023-04-01T11:40:55.883Z,13.40
2023-04-01T11:46:42.402Z,13.40
2023-04-01T11:52:32.105Z,13.50
2023-04-01T11:58:16.434Z,13.50
2023-04-01T12:03:33.302Z,13.60
2023-04-01T12:09:04.845Z,13.60
2023-04-01T12:14:17.747Z,13.60
2023-04-01T12:19:38.236Z,13.70
2023-04-01T12:25:12.283Z,13.80
2023-04-01T12:30:29.867Z,13.90
2023-04-01T12:35:50.221Z,13.80
2023-04-01T12:41:04.115Z,13.60
2023-04-01T12:46:27.976Z,13.50
2023-04-01T12:51:54.221Z,13.40
2023-04-01T12:56:56.132Z,13.40
2023-04-01T13:02:17.233Z,13.50
2023-04-01T13:07:33.845Z,13.50
2023-04-01T13:13:03.122Z,13.50
2023-04-01T13:18:44.946Z,13.50
2023-04-01T13:24:00.334Z,13.40
2023-04-01T13:29:31.582Z,13.40
2023-04-01T13:34:36.418Z,13.30
2023-04-01T13:39:56.834Z,13.30
2023-04-01T13:45:04.052Z,13.30
2023-04-01T13:50:18.697Z,13.30
2023-04-01T13:55:40.614Z,13.40
2023-04-01T14:01:06.543Z,13.50
2023-04-01T14:06:28.168Z,13.60
2023-04-01T14:11:50.777Z,13.70
2023-04-01T14:17:14.627Z,13.70
2023-04-01T14:22:36.362Z,13.70
2023-04-01T14:28:04.442Z,13.60
2023-04-01T14:33:14.734Z,13.50
2023-04-01T14:38:49.104Z,13.40
2023-04-01T14:44:13.263Z,13.40
2023-04-01T14:49:20.549Z,13.50
2023-04-01T14:54:41.368Z,13.50
2023-04-01T15:00:11.043Z,13.50
2023-04-01T15:05:26.071Z,13.50
2023-04-01T15:10:39.924Z,13.50
2023-04-01T15:16:27.279Z,13.50
2023-04-01T15:22:01.015Z,13.60
2023-04-01T15:27:18.023Z,13.60
2023-04-01T15:32:47.298Z,13.60
2023-04-01T15:38:22.478Z,13.50
2023-04-01T15:43:46.901Z,13.40
2023-04-01T15:49:12.844Z,13.30
2023-04-01T15:54:51.621Z,13.30
2023-04-01T16:00:42.607Z,13.20
2023-04-01T16:05:59.851Z,13.10
2023-04-01T16:11:22.489Z,13.10
2023-04-01T16:17:05.127Z,13.20
2023-04-01T16:22:11.315Z,13.20
2023-04-01T16:27:19.915Z,13.20
2023-04-01T16:32:57.156Z,13.30
2023-04-01T16:38:09.892Z,13.30
2023-04-01T16:43:27.016Z,13.40
2023-04-01T16:48:44.510Z,13.50
2023-04-01T16:53:50.924Z,13.50
2023-04-01T16:58:55.684Z,13.60
2023-04-01T17:04:09.204Z,13.80
2023-04-01T17:09:47.995Z,13.80
2023-04-01T17:15:12.976Z,13.80
2023-04-01T17:20:29.985Z,13.80
2023-04-01T17:25:39.490Z,13.70
2023-04-01T17:30:54.995Z,13.60
2023-04-01T17:36:13.307Z,13.60
2023-04-01T17:41:45.258Z,13.60
2023-04-01T17:46:49.904Z,13.60
2023-04-01T17:51:58.525Z,13.60
2023-04-01T17:57:23.891Z,13.70
2023-04-01T18:02:31.668Z,13.70
2023-04-01T18:08:10.589Z,13.80
2023-04-01T18:13:44.727Z,13.70
2023-04-01T18:19:01.843Z,13.60
2023-04-01T18:24:26.072Z,13.50
2023-04-01T18:29:46.468Z,13.40
2023-04-01T18:35:26.715Z,13.40
2023-04-01T18:40:37.762Z,13.40
2023-04-01T18:45:54.560Z,13.40
2023-04-01T18:51:04.075Z,13.40
2023-04-01T18:56:43.291Z,13.40
2023-04-01T19:02:23.032Z,13.40
2023-04-01T19:07:30.813Z,13.30
2023-04-01T19:13:13.676Z,13.30
2023-04-01T19:18:36.441Z,13.30
2023-04-01T19:24:16.732Z,13.10
2023-04-01T19:30:02.867Z,13.10
2023-04-01T19:35:13.809Z,13.00
2023-04-01T19:40:30.769Z,12.90
2023-04-01T19:45:51.436Z,12.90
2023-04-01T19:51:08.481Z,12.80
2023-04-01T19:56:20.486Z,12.80
2023-04-01T20:01:44.682Z,12.80
2023-04-01T20:07:11.864Z,12.80
2023-04-01T20:12:16.848Z,12.80
2023-04-01T20:17:38.863Z,12.70
2023-04-01T20:22:46.668Z,12.70
2023-04-01T20:28:10.704Z,12.70
2023-04-01T20:33:37.493Z,12.60
2023-04-01T20:39:03.948Z,12.60
2023-04-01T20:44:12.040Z,12.60
2023-04-01T20:49:41.792Z,12.50
2023-04-01T20:55:01.554Z,12.50
2023-04-01T21:00:15.626Z,12.50
2023-04-01T21:05:29.603Z,12.40
2023-04-01T21:10:55.601Z,12.30
2023-04-01T21:16:09.622Z,12.40
2023-04-01T21:21:14.442Z,12.40
2023-04-01T21:26:43.648Z,12.40
2023-04-01T21:32:06.696Z,12.60
2023-04-01T21:38:00.426Z,12.60
2023-04-01T21:43:36.539Z,12.50
2023-04-01T21:49:13.727Z,12.50
2023-04-01T21:54:44.184Z,12.50
2023-04-01T22:00:11.940Z,12.60
2023-04-01T22:05:28.780Z,12.50
2023-04-01T22:10:30.575Z,12.50
2023-04-01T22:16:12.319Z,12.50
2023-04-01T22:21:24.861Z,12.40
2023-04-01T22:26:30.878Z,12.30
2023-04-01T22:31:43.078Z,12.20
2023-04-01T22:36:56.703Z,12.10
2023-04-01T22:42:22.293Z,11.90
2023-04-01T22:47:40.144Z,11.90
2023-04-01T22:52:45.845Z,11.90
2023-04-01T22:57:54.765Z,11.90
2023-04-01T23:03:27.741Z,11.90
2023-04-01T23:09:03.960Z,11.90
2023-04-01T23:14:14.590Z,11.80
2023-04-01T23:19:25.871Z,11.70
2023-04-01T23:25:06.668Z,11.80
2023-04-01T23:30:47.359Z,11.80
2023-04-01T23:35:50.090Z,11.70
2023-04-01T23:40:54.377Z,11.50
2023-04-01T23:45:57.256Z,11.50
2023-04-01T23:50:59.846Z,11.50
2023-04-01T23:56:04.216Z,11.40
